DLM weather

Dalaman International Airport
Dalaman, Mu─čla Province, Turkey

Public forecast

Using degrees Celsius for public forecast. Weather courtesy of forecast.io.

Current aviation weather report (METAR) for Dalaman International Airport

Retrieved 2019/10/19 00:20 UTC (39 minutes ago):

LTBS 190020Z 07005KT CAVOK 19/18 Q1016 NOSIG RMK RWY19 03004KT 340V100

Aviation forecast (TAF) for Dalaman International Airport

Retrieved 2019-10-19 00:03 UTC (56 minutes ago):

TAF LTBS 182240Z 1900/1924 VRB02KT CAVOK BECMG 1907/1909 21012KT SCT030 BKN180 BECMG 1916/1918 VRB02KT